Latest Weather Observations for Rottnest Island

IDW60801

Issued at 10:43 am WST Thursday 1 October 2020 (issued every 10 minutes, with the page automatically refreshed every 10 minutes)

About weather observations | Map of weather stations | Latest weather observations for WA | Other Formats
Station Details ID: 009193 Name: ROTTNEST ISLAND Lat: -32.01 Lon: 115.50 Height: 43.1 m
Data from the previous 72 hours. | See also: Recent months at Rottnest Island
Date/Time
WST
Temp
°C
App
Temp
°C
Dew
Point
°C
Rel
Hum
%
Delta-T
°C
Wind Press
QNH
hPa
Press
MSL
hPa
Rain since
9am
mm
Dir  Spd
km/h
Gust
km/h
Spd
kts
Gust
kts
01/10:30am 19.5 14.0 11.8 61 4.3 WNW 32 43 17 23 1015.1 1015.0 0.0
01/10:00am 19.3 14.5 11.6 61 4.2 WNW 28 35 15 19 1014.9 1014.8 0.0
01/09:30am 19.0 13.9 11.8 63 4.0 WNW 30 39 16 21 1014.8 1014.7 0.0
01/09:00am 18.2 14.3 12.2 68 3.3 W 24 33 13 18 1014.7 1014.6 0.0
01/08:30am 18.3 14.3 13.0 71 3.0 W 26 37 14 20 1014.5 1014.4 0.0
01/08:00am 18.7 15.3 12.5 67 3.5 WNW 22 30 12 16 1014.3 1014.2 0.0
01/07:30am 18.1 13.8 11.9 67 3.4 WNW 26 35 14 19 1014.2 1014.1 0.0
01/07:00am 18.1 13.5 11.2 64 3.8 W 26 33 14 18 1014.1 1014.0 0.0
01/06:30am 17.8 14.0 12.3 70 3.0 WNW 24 35 13 19 1013.9 1013.8 0.0
01/06:00am 17.6 13.9 11.6 68 3.3 W 22 30 12 16 1013.8 1013.7 0.0
01/05:30am 17.6 13.4 11.2 66 3.5 W 24 32 13 17 1013.6 1013.5 0.0
01/05:00am 17.3 13.5 11.1 67 3.4 W 22 30 12 16 1013.4 1013.3 0.0
01/04:30am 17.5 13.2 10.6 64 3.7 W 24 32 13 17 1013.3 1013.2 0.0
01/04:00am 17.4 12.7 10.8 65 3.5 WNW 26 32 14 17 1013.2 1013.1 0.0
01/03:30am 17.3 13.8 10.9 66 3.4 W 20 32 11 17 1013.4 1013.3 0.0
01/03:00am 17.3 13.0 10.7 65 3.5 WNW 24 32 13 17 1013.4 1013.3 0.0
01/02:30am 16.9 14.1 11.4 70 3.0 W 17 26 9 14 1013.4 1013.3 0.0
01/02:00am 17.0 14.1 11.1 68 3.2 W 17 20 9 11 1013.6 1013.5 0.0
01/01:30am 17.0 12.1 10.1 64 3.7 W 26 35 14 19 1014.1 1014.0 0.0
01/01:00am 17.1 12.6 11.4 69 3.1 W 26 33 14 18 1014.4 1014.3 0.0
01/12:30am 17.2 13.3 12.1 72 2.8 W 24 33 13 18 1014.6 1014.5 0.0
01/12:00am 17.3 14.0 12.8 75 2.5 W 22 30 12 16 1014.5 1014.4 0.0
 
Date/Time
WST
Temp
°C
App
Temp
°C
Dew
Point
°C
Rel
Hum
%
Delta-T
°C
Wind Press
QNH
hPa
Press
MSL
hPa
Rain since
9am
mm
Dir  Spd
km/h
Gust
km/h
Spd
kts
Gust
kts
30/11:30pm 17.5 14.1 11.3 67 3.4 WNW 20 30 11 16 1014.8 1014.7 0.0
30/11:00pm 17.7 14.4 11.7 68 3.3 W 20 30 11 16 1015.1 1015.0 0.0
30/10:30pm 17.6 14.9 13.5 77 2.3 W 20 26 11 14 1015.4 1015.3 0.0
30/10:00pm 17.7 15.0 13.6 77 2.3 W 20 30 11 16 1015.8 1015.7 0.0
30/09:30pm 17.8 15.6 14.3 80 2.0 W 19 28 10 15 1015.9 1015.8 0.0
30/09:00pm 17.7 15.2 13.4 76 2.4 W 19 24 10 13 1016.0 1015.9 0.0
30/08:30pm 17.7 15.1 13.8 78 2.2 W 20 28 11 15 1016.0 1015.9 0.0
30/08:00pm 17.8 15.0 14.3 80 2.0 W 22 28 12 15 1016.1 1016.0 0.0
30/07:30pm 17.9 14.4 13.4 75 2.5 WNW 24 30 13 16 1015.7 1015.6 0.0
30/07:00pm 17.8 15.1 14.5 81 1.9 WNW 22 30 12 16 1015.5 1015.4 0.0
30/06:30pm 17.6 15.2 14.5 82 1.8 WNW 20 26 11 14 1015.3 1015.2 0.0
30/06:00pm 18.0 15.8 14.5 80 2.0 WNW 19 24 10 13 1015.2 1015.1 0.0
30/05:30pm 18.1 16.6 15.4 84 1.6 W 17 24 9 13 1015.3 1015.2 0.0
30/05:00pm 18.4 16.3 14.7 79 2.1 WNW 19 24 10 13 1015.2 1015.1 0.0
30/04:30pm 18.4 16.4 14.9 80 2.0 NW 19 22 10 12 1015.4 1015.3 0.0
30/04:00pm 18.6 16.2 14.3 76 2.5 NW 20 24 11 13 1015.3 1015.2 0.0
30/03:30pm 18.8 16.5 14.1 74 2.7 NW 19 24 10 13 1015.5 1015.4 0.0
30/03:00pm 18.7 16.2 14.0 74 2.7 NW 20 24 11 13 1015.5 1015.4 0.0
30/02:30pm 18.9 16.4 14.2 74 2.7 NW 20 24 11 13 1015.7 1015.6 0.0
30/02:00pm 19.0 16.5 14.1 73 2.8 NW 20 26 11 14 1016.0 1015.9 0.0
30/01:30pm 18.7 16.1 13.8 73 2.8 NW 20 26 11 14 1016.3 1016.2 0.0
30/01:00pm 18.0 15.6 14.3 79 2.1 NNW 20 28 11 15 1016.6 1016.5 0.0
30/12:30pm 19.1 17.0 14.8 76 2.5 N 19 22 10 12 1016.8 1016.7 0.0
30/12:00pm 18.2 15.8 13.9 76 2.5 NNW 19 22 10 12 1017.2 1017.1 0.0
30/11:30am 18.3 15.5 14.4 78 2.3 NNW 22 28 12 15 1017.4 1017.3 0.0
30/11:00am 18.4 16.0 14.5 78 2.3 NNW 20 26 11 14 1017.8 1017.7 0.0
30/10:30am 18.7 17.5 14.0 74 2.7 NW 13 17 7 9 1018.1 1018.0 0.0
30/10:00am 18.2 17.4 13.9 76 2.5 NW 11 17 6 9 1018.3 1018.2 0.0
30/09:30am 17.8 16.6 13.9 78 2.2 NNW 13 17 7 9 1018.3 1018.2 0.0
30/09:00am 18.0 16.8 14.1 78 2.2 NW 13 17 7 9 1018.3 1018.2 0.0
30/08:30am 17.5 16.2 13.8 79 2.1 WNW 13 17 7 9 1018.3 1018.2 0.0
30/08:00am 17.4 16.8 13.5 78 2.2 WNW 9 11 5 6 1018.3 1018.2 0.0
30/07:30am 17.3 16.8 13.8 80 2.0 W 9 11 5 6 1018.0 1017.9 0.0
30/07:00am 16.8 17.6 12.5 76 2.4 CALM 0 2 0 1 1017.9 1017.8 0.0
30/06:30am 16.8 16.1 11.9 73 2.7 W 7 11 4 6 1017.9 1017.8 0.0
30/06:00am 16.5 16.2 12.7 78 2.1 W 6 7 3 4 1017.7 1017.6 0.0
30/05:30am 16.4 16.0 12.9 80 1.9 W 7 9 4 5 1017.6 1017.5 0.0
30/05:00am 16.2 15.5 13.3 83 1.6 W 9 11 5 6 1017.4 1017.3 0.0
30/04:30am 16.4 15.4 13.3 82 1.7 WSW 11 17 6 9 1017.6 1017.5 0.0
30/04:00am 16.6 15.1 13.1 80 2.0 SW 13 17 7 9 1017.6 1017.5 0.0
30/03:30am 16.7 14.0 13.0 79 2.1 SW 19 22 10 12 1017.6 1017.5 0.0
30/03:00am 16.9 14.2 12.8 77 2.3 SW 19 22 10 12 1017.6 1017.5 0.0
30/02:30am 17.0 15.4 11.5 70 3.0 WSW 11 15 6 8 1017.8 1017.7 0.0
30/02:00am 16.8 14.5 11.7 72 2.8 WSW 15 20 8 11 1018.0 1017.9 0.0
30/01:30am 17.0 13.7 11.7 71 2.9 SW 20 24 11 13 1018.2 1018.1 0.0
30/01:00am 16.9 13.9 11.8 72 2.8 SW 19 26 10 14 1018.3 1018.2 0.0
30/12:30am 17.0 13.5 12.1 73 2.7 WSW 22 32 12 17 1018.5 1018.4 0.0
30/12:00am 16.9 13.9 12.4 75 2.5 SW 20 24 11 13 1018.8 1018.7 0.0
 
Date/Time
WST
Temp
°C
App
Temp
°C
Dew
Point
°C
Rel
Hum
%
Delta-T
°C
Wind Press
QNH
hPa
Press
MSL
hPa
Rain since
9am
mm
Dir  Spd
km/h
Gust
km/h
Spd
kts
Gust
kts
29/11:30pm 16.7 14.0 13.0 79 2.1 SW 19 24 10 13 1019.0 1018.9 0.0
29/11:00pm 16.5 14.0 14.2 86 1.3 SW 20 24 11 13 1019.0 1018.9 0.0
29/10:30pm 15.8 13.0 14.2 90 0.9 SW 22 26 12 14 1019.3 1019.2 0.0
29/10:00pm 15.4 13.2 14.4 94 0.6 SW 19 24 10 13 1019.5 1019.4 0.0
29/09:30pm 15.2 13.2 15.0 99 0.1 SW 19 22 10 12 1019.5 1019.4 0.0
29/09:00pm 15.2 10.8 15.2 100 0.0 SW 32 41 17 22 1019.6 1019.6 0.0
29/08:30pm 15.4 9.8 15.4 100 0.0 SW 39 46 21 25 1019.8 1019.8 0.0
29/08:17pm 15.7 11.4 15.5 99 0.1 WSW 32 43 17 23 1019.8 1019.8 0.0
29/08:00pm 15.4 13.9 15.2 99 0.1 W 17 24 9 13 1019.7 1019.7 0.0
29/07:30pm 17.4 13.8 14.1 81 1.9 WNW 26 33 14 18 1019.5 1019.4 0.0
29/07:00pm 17.7 15.0 13.6 77 2.3 W 20 30 11 16 1019.4 1019.3 0.0
29/06:30pm 17.9 15.2 12.8 72 2.9 WNW 19 24 10 13 1019.1 1019.0 0.0
29/06:00pm 17.9 14.0 12.1 69 3.2 W 24 32 13 17 1019.0 1018.9 0.0
29/05:30pm 18.0 14.4 12.9 72 2.9 W 24 33 13 18 1018.8 1018.7 0.0
29/05:00pm 17.9 13.5 12.8 72 2.8 WNW 28 33 15 18 1018.7 1018.6 0.0
29/04:30pm 18.3 14.3 11.8 66 3.6 W 24 33 13 18 1018.5 1018.4 0.0
29/04:00pm 18.5 14.8 12.7 69 3.2 WNW 24 32 13 17 1018.4 1018.3 0.0
29/03:30pm 18.4 13.5 12.6 69 3.2 WNW 30 39 16 21 1018.3 1018.2 0.0
29/03:00pm 18.1 13.7 13.0 72 2.9 WNW 28 33 15 18 1018.5 1018.4 0.0
29/02:30pm 18.5 13.3 12.7 69 3.3 WNW 32 39 17 21 1018.7 1018.6 0.0
29/02:00pm 18.0 13.2 12.9 72 2.9 WNW 30 35 16 19 1018.6 1018.5 0.0
29/01:30pm 17.5 13.4 13.8 79 2.1 NW 28 35 15 19 1018.6 1018.5 0.0
29/01:00pm 16.8 13.3 14.4 86 1.4 NW 26 39 14 21 1019.0 1018.9 0.0
29/12:30pm 18.2 13.2 12.2 68 3.3 NW 30 37 16 20 1019.0 1018.9 0.0
29/12:00pm 17.8 13.3 12.7 72 2.8 NW 28 33 15 18 1019.1 1019.0 0.0
29/11:30am 18.4 14.8 13.1 71 3.0 NW 24 35 13 19 1019.2 1019.1 0.0
29/11:00am 18.3 14.4 12.1 67 3.4 NW 24 32 13 17 1019.5 1019.4 0.0
29/10:30am 19.3 15.6 12.8 66 3.7 NW 24 28 13 15 1019.6 1019.6 0.0
29/10:00am 18.1 13.5 12.3 69 3.2 NW 28 35 15 19 1019.7 1019.7 0.0
29/09:30am 17.8 14.0 12.3 70 3.0 NW 24 30 13 16 1019.7 1019.7 0.0
29/09:00am 17.9 13.4 11.5 66 3.5 WNW 26 30 14 16 1019.8 1019.8 0.2
29/08:30am 17.8 15.7 12.3 70 3.0 WNW 15 19 8 10 1019.7 1019.7 0.2
29/08:00am 17.3 14.1 11.1 67 3.3 WNW 19 24 10 13 1019.6 1019.6 0.2
29/07:30am 17.0 13.4 10.6 66 3.4 WNW 20 30 11 16 1019.3 1019.2 0.2
29/07:00am 17.0 13.7 11.7 71 2.9 WSW 20 30 11 16 1019.1 1019.0 0.2
29/06:30am 16.7 12.5 11.2 70 3.0 WSW 24 30 13 16 1018.9 1018.8 0.2
29/06:00am 16.8 13.3 12.1 74 2.6 W 22 33 12 18 1018.8 1018.7 0.2
29/05:30am 16.7 13.9 12.5 76 2.3 WNW 19 26 10 14 1018.4 1018.3 0.2
29/05:00am 16.6 13.3 11.5 72 2.8 WNW 20 24 11 13 1018.0 1017.9 0.2
29/04:30am 16.0 12.7 11.0 72 2.7 WNW 19 22 10 12 1017.6 1017.5 0.2
29/04:00am 16.1 12.6 10.8 71 2.8 NW 20 26 11 14 1017.3 1017.2 0.2
29/03:30am 15.9 12.7 11.1 73 2.6 NW 19 22 10 12 1017.5 1017.4 0.2
29/03:00am 15.7 12.6 10.2 70 2.9 WNW 17 22 9 12 1017.7 1017.6 0.2
29/02:30am 15.5 11.8 9.6 68 3.1 WNW 19 22 10 12 1017.9 1017.8 0.2
29/02:00am 15.5 12.3 9.8 69 3.0 WNW 17 20 9 11 1018.2 1018.1 0.2
29/01:30am 15.7 12.5 10.0 69 3.0 W 17 22 9 12 1018.7 1018.6 0.2
29/01:00am 15.2 12.1 10.4 73 2.5 W 17 20 9 11 1019.0 1018.9 0.2
29/12:30am 15.1 12.1 10.5 74 2.4 W 17 20 9 11 1019.1 1019.0 0.2
29/12:00am 15.1 12.1 10.7 75 2.3 WSW 17 20 9 11 1019.2 1019.1 0.2
 
Date/Time
WST
Temp
°C
App
Temp
°C
Dew
Point
°C
Rel
Hum
%
Delta-T
°C
Wind Press
QNH
hPa
Press
MSL
hPa
Rain since
9am
mm
Dir  Spd
km/h
Gust
km/h
Spd
kts
Gust
kts
28/11:30pm 15.3 12.8 11.1 76 2.2 W 15 17 8 9 1019.4 1019.3 0.2
28/11:00pm 14.9 12.4 10.9 77 2.1 WSW 15 19 8 10 1019.7 1019.7 0.2
28/10:30pm 14.9 12.5 11.3 79 1.9 WSW 15 17 8 9 1019.5 1019.4 0.2
28/10:00pm 14.9 13.1 10.7 76 2.2 WSW 11 15 6 8 1019.7 1019.7 0.2
28/09:30pm 14.7 12.0 10.5 76 2.2 WSW 15 17 8 9 1019.9 1019.9 0.2
28/09:00pm 14.7 12.3 10.1 74 2.4 WSW 13 17 7 9 1019.9 1019.9 0.2
28/08:30pm 15.1 12.3 10.1 72 2.6 WSW 15 19 8 10 1019.8 1019.8 0.2
28/08:00pm 15.1 12.7 10.1 72 2.6 WSW 13 19 7 10 1019.8 1019.8 0.2
28/07:30pm 15.0 11.7 9.6 70 2.8 WSW 17 19 9 10 1019.5 1019.4 0.2
28/07:00pm 15.3 11.7 9.7 69 2.9 SW 19 22 10 12 1019.2 1019.1 0.2
28/06:30pm 15.6 12.0 9.9 69 3.0 SW 19 24 10 13 1018.9 1018.8 0.2
28/06:00pm 16.1 12.3 9.8 66 3.3 SW 20 28 11 15 1018.7 1018.6 0.2
28/05:30pm 16.8 12.1 9.2 61 3.9 SW 24 33 13 18 1018.6 1018.5 0.2
28/05:00pm 17.2 12.6 9.6 61 4.0 SW 24 30 13 16 1018.4 1018.3 0.2
28/04:30pm 17.8 12.5 9.7 59 4.3 WSW 28 33 15 18 1018.3 1018.2 0.2
28/04:00pm 18.0 13.3 10.6 62 4.0 WSW 26 35 14 19 1017.9 1017.8 0.2
28/03:30pm 18.4 13.3 10.5 60 4.2 WSW 28 35 15 19 1017.9 1017.8 0.2
28/03:00pm 18.2 13.5 10.6 61 4.1 WSW 26 33 14 18 1017.8 1017.7 0.2
28/02:30pm 18.3 13.0 11.1 63 3.9 SW 30 35 16 19 1017.7 1017.6 0.2
28/02:00pm 18.3 13.4 11.4 64 3.8 SW 28 33 15 18 1017.7 1017.6 0.2
28/01:30pm 18.5 14.5 13.1 71 3.0 SW 26 32 14 17 1017.7 1017.6 0.2
28/01:00pm 17.9 14.5 13.6 76 2.4 SW 24 30 13 16 1017.9 1017.8 0.2
28/12:30pm 17.1 13.2 14.4 84 1.6 SW 28 35 15 19 1018.2 1018.1 0.2
28/12:00pm 18.7 14.9 14.8 78 2.3 SW 28 33 15 18 1018.0 1017.9 0.2
28/11:30am 18.5 15.3 15.4 82 1.8 SW 26 35 14 19 1018.1 1018.0 0.2
28/11:00am 18.5 16.5 15.4 82 1.8 SW 20 28 11 15 1018.1 1018.0 0.2

Other formats

Comma delimited format used in spreadsheet applications
http://www.bom.gov.au/fwo/IDW60801/IDW60801.94602.axf

JavaScript Object Notation format (JSON) in row-major order
http://www.bom.gov.au/fwo/IDW60801/IDW60801.94602.json

Data quality

Most of these data are generated automatically and are frequently updated. Quality checks on data are not normally performed. It is possible for incorrect values to appear. Refer to information at About Latest Weather Observations and please check the disclaimer before using these data.